الصفحة الرئيسية
METAR-TAF:

METAR-TAF

مطار :

مطار أوكلاند الدولي

أوكلاند, نيوزيلندا

دائرة عرض: 37-01S, خط طول: 174-48E, ارتفاع: 7 متر

مراقبة الطقس الحالي

تاريخ ووقت الإصدار 11 دقيقة قبل الساعة 06:00UTC
ريح 5 عقدة من الجنوب
درجة الحرارة 13°درجة مئوية
الرطوبة 77%
ضغط 1018 hPa
الرؤية 10 كم أو أكثر

METAR: NZAA 180600Z AUTO 18005KT 9999 BKN044/// 13/09 Q1018

زمن: 18:11 (06:11 UTC)

توقعات

تاريخ ووقت الإصدار 1ساعة و 4 دقيقة قبل الساعة 05:07UTC
التوقعات صالحة من18 الساعة 06 UTC إلى 19 الساعة 12 UTC
ريح 5 عقدة من الجنوب/الجنوب الشرقي
الرؤية 10 كم أو أكثر
غيوم متفرقة على ارتفاع 4000 قدم
نظرية الاحتمالات 30%
من 18 الساعة 13 UTC إلى 18 الساعة 19 UTC
الرؤية: 1500 متر
غشاء,

TAF: NZAA 180507Z 1806/1912 16005KT 9999 SCT040 PROB30 1813/1819 1500 BR

أرصاد الطقس والتوقعات من أكثر من 4000 مطار (تقارير الطقس للمطار METAR والتنبؤ بالطقس بالمطارTAF).

المحطات المتاحة هي النقط الصفراء والحمراء على الخريطة.

حرك المؤشر فوق النقطة لمعرفة اسم المحطة.

ثم انقر لمعرفة أرصاد وتوقعات الطقس.

لتغيير الخارطة: اضغط على الأزرار الخضراء مع رمز الصليب الأسود للتكبير. على الزر الأخضر مع شرطة للتصغير، أو على الأسهم الخضراء للخرائط المجاورة.


METAR-TAF: